Terminal Aerodrome Forecast
Issued by NWS

Home | Current Version | Previous Version | Text Only | Print | Product List | Glossary On
Versions: 1 2 3 4 5 6 7 8 9 10 11 12 13 14 15 16 17
897
FTUS43 KDVN 221120
TAFCID
TAF
KCID 221120Z 2212/2312 34004KT 2SM BR BKN015
      TEMPO 2212/2214 VRB02KT 1/4SM FG VV002
     FM221700 30005KT P6SM SCT050
     FM230300 11004KT P6SM BKN250=

USA.gov is the U.S. government's official web portal to all federal, state and local government web resources and services.